Weather at Oristano-Fenosu Airport

Public forecast

Using degrees Celsius for public forecast. Weather courtesy of forecast.io.

Closest aviation weather report (METAR) to Oristano-Fenosu Airport

Closest report is Decimomannu Air Base, 35.9 nm (66.5 km) SSE.

2024/02/23 06:55 (retrieved 49 minutes ago)

LIED 230655Z 22008KT 9999 FEW020 SCT030 14/09 Q1003 RMK OVC BKN090 VIS MIN 9999 WIND THR35 /////KT WIND THR17 22008KT BLU

Closest aviation forecast (TAF) to Oristano-Fenosu Airport

Closest forecast is Cagliari Elmas Airport, 43.1 nm (79.8 km) SSE.

2024/02/23 06:21 (retrieved 1 hour ago)

TAF LIEE 230500Z 2306/2406 15008KT 9999 FEW030 TEMPO 2308/2311 4000 -RA BECMG 2309/2311 27011KT TEMPO 2313/2316 RA BECMG 2316/2318 34010KT BECMG 2323/2401 VRB04KT